createdAt,value
2023-01-21T00:01:06.348Z,0.40
2023-01-21T00:03:33.243Z,0.30
2023-01-21T00:06:00.040Z,0.40
2023-01-21T00:08:27.200Z,0.30
2023-01-21T00:10:54.519Z,0.30
2023-01-21T00:13:21.643Z,0.30
2023-01-21T00:15:48.388Z,0.20
2023-01-21T00:18:15.201Z,0.20
2023-01-21T00:20:41.994Z,0.10
2023-01-21T00:23:10.777Z,0.10
2023-01-21T00:25:37.461Z,0.00
2023-01-21T00:28:04.403Z,0.00
2023-01-21T00:30:32.267Z,0.00
2023-01-21T00:32:59.023Z,0.10
2023-01-21T00:35:25.700Z,0.00
2023-01-21T00:37:52.633Z,0.00
2023-01-21T00:40:19.636Z,0.10
2023-01-21T00:42:46.380Z,0.00
2023-01-21T00:45:13.210Z,0.00
2023-01-21T00:47:40.308Z,0.00
2023-01-21T00:50:08.823Z,0.00
2023-01-21T00:52:35.897Z,0.10
2023-01-21T00:55:02.558Z,0.10
2023-01-21T00:57:29.369Z,0.00
2023-01-21T00:59:56.427Z,0.00
2023-01-21T01:02:23.159Z,-0.10
2023-01-21T01:04:50.949Z,-0.10
2023-01-21T01:07:17.609Z,0.00
2023-01-21T01:09:44.335Z,0.10
2023-01-21T01:12:11.077Z,0.00
2023-01-21T01:14:37.899Z,-0.20
2023-01-21T01:17:04.807Z,-0.20
2023-01-21T01:19:31.473Z,-0.10
2023-01-21T01:21:58.138Z,-0.10
2023-01-21T01:24:24.873Z,-0.20
2023-01-21T01:26:51.493Z,-0.10
2023-01-21T01:29:18.628Z,-0.10
2023-01-21T01:31:45.489Z,-0.10
2023-01-21T01:34:12.223Z,-0.10
2023-01-21T01:36:39.905Z,-0.30
2023-01-21T01:39:07.358Z,-0.20
2023-01-21T01:41:35.276Z,-0.30
2023-01-21T01:44:05.129Z,-0.30
2023-01-21T01:46:34.399Z,-0.40
2023-01-21T01:49:19.560Z,-0.30
2023-01-21T01:51:51.787Z,-0.40
2023-01-21T01:54:24.447Z,-0.50
2023-01-21T01:56:55.210Z,-0.40
2023-01-21T01:59:22.206Z,-0.30
2023-01-21T02:01:49.349Z,-0.40
2023-01-21T02:04:27.267Z,-0.40
2023-01-21T02:06:55.554Z,-0.40
2023-01-21T02:09:23.295Z,-0.50
2023-01-21T02:11:51.153Z,-0.40
2023-01-21T02:14:18.823Z,-0.40
2023-01-21T02:17:05.221Z,-0.40
2023-01-21T02:20:03.150Z,-0.50
2023-01-21T02:22:40.306Z,-0.50
2023-01-21T02:25:28.934Z,-0.50
2023-01-21T02:28:30.945Z,-0.50
2023-01-21T02:31:24.992Z,-0.60
2023-01-21T02:33:51.628Z,-0.70
2023-01-21T02:36:32.205Z,-0.70
2023-01-21T02:39:01.696Z,-0.60
2023-01-21T02:41:44.255Z,-0.60
2023-01-21T02:44:24.792Z,-0.60
2023-01-21T02:46:59.132Z,-0.60
2023-01-21T02:49:48.694Z,-0.60
2023-01-21T02:52:20.690Z,-0.70
2023-01-21T02:54:56.751Z,-0.70
2023-01-21T02:57:43.412Z,-0.70
2023-01-21T03:00:20.990Z,-0.70
2023-01-21T03:02:54.838Z,-0.70
2023-01-21T03:05:48.519Z,-0.80
2023-01-21T03:08:22.112Z,-0.70
2023-01-21T03:11:15.636Z,-0.80
2023-01-21T03:14:18.235Z,-0.80
2023-01-21T03:16:57.101Z,-0.70
2023-01-21T03:20:05.594Z,-0.80
2023-01-21T03:22:35.104Z,-0.70
2023-01-21T03:25:04.191Z,-0.80
2023-01-21T03:27:33.156Z,-0.90
2023-01-21T03:30:05.713Z,-0.70
2023-01-21T03:32:34.525Z,-0.80
2023-01-21T03:35:03.870Z,-0.70
2023-01-21T03:37:43.345Z,-0.70
2023-01-21T03:40:19.004Z,-0.70
2023-01-21T03:42:50.412Z,-0.70
2023-01-21T03:45:25.006Z,-0.80
2023-01-21T03:47:58.787Z,-0.60
2023-01-21T03:50:36.769Z,-0.70
2023-01-21T03:53:04.472Z,-0.80
2023-01-21T03:55:31.175Z,-0.80
2023-01-21T03:57:57.837Z,-0.80
2023-01-21T04:00:24.562Z,-0.80
2023-01-21T04:02:51.582Z,-0.80
2023-01-21T04:05:18.268Z,-0.90
2023-01-21T04:07:45.049Z,-1.00
2023-01-21T04:10:11.919Z,-1.00
2023-01-21T04:12:38.681Z,-0.90
2023-01-21T04:15:06.108Z,-0.90
2023-01-21T04:17:32.840Z,-0.90
2023-01-21T04:19:59.509Z,-0.90
2023-01-21T04:22:26.225Z,-0.90
2023-01-21T04:24:52.981Z,-1.00
2023-01-21T04:27:19.629Z,-1.20
2023-01-21T04:29:46.382Z,-1.30
2023-01-21T04:32:13.087Z,-1.30
2023-01-21T04:34:39.760Z,-1.40
2023-01-21T04:37:06.682Z,-1.30
2023-01-21T04:39:34.383Z,-1.40
2023-01-21T04:42:01.107Z,-1.40
2023-01-21T04:44:27.879Z,-1.40
2023-01-21T04:46:54.541Z,-1.50
2023-01-21T04:49:21.205Z,-1.50
2023-01-21T04:51:47.975Z,-1.50
2023-01-21T04:54:14.635Z,-1.50
2023-01-21T04:56:41.327Z,-1.60
2023-01-21T04:59:08.097Z,-1.70
2023-01-21T05:01:34.829Z,-1.70
2023-01-21T05:04:01.576Z,-1.80
2023-01-21T05:06:28.463Z,-1.70
2023-01-21T05:08:55.169Z,-1.70
2023-01-21T05:11:21.966Z,-1.70
2023-01-21T05:13:49.702Z,-1.70
2023-01-21T05:16:16.520Z,-1.70
2023-01-21T05:18:45.030Z,-1.70
2023-01-21T05:21:13.311Z,-1.70
2023-01-21T05:23:40.046Z,-1.70
2023-01-21T05:26:06.871Z,-1.70
2023-01-21T05:28:33.586Z,-1.80
2023-01-21T05:31:01.666Z,-1.60
2023-01-21T05:33:32.909Z,-1.60
2023-01-21T05:36:00.277Z,-1.70
2023-01-21T05:38:27.400Z,-1.70
2023-01-21T05:41:00.820Z,-1.70
2023-01-21T05:43:29.230Z,-1.60
2023-01-21T05:45:56.485Z,-1.50
2023-01-21T05:48:23.808Z,-1.50
2023-01-21T05:50:50.801Z,-1.50
2023-01-21T05:53:18.174Z,-1.50
2023-01-21T05:55:44.824Z,-1.60
2023-01-21T05:58:11.605Z,-1.60
2023-01-21T06:00:41.823Z,-1.70
2023-01-21T06:03:09.265Z,-1.60
2023-01-21T06:05:36.155Z,-1.60
2023-01-21T06:08:02.877Z,-1.50
2023-01-21T06:10:29.523Z,-1.50
2023-01-21T06:12:56.371Z,-1.50
2023-01-21T06:15:24.348Z,-1.40
2023-01-21T06:17:51.525Z,-1.30
2023-01-21T06:20:18.632Z,-1.30
2023-01-21T06:22:46.252Z,-1.40
2023-01-21T06:25:13.091Z,-1.40
2023-01-21T06:27:39.755Z,-1.20
2023-01-21T06:30:07.559Z,-1.20
2023-01-21T06:32:34.987Z,-1.30
2023-01-21T06:35:01.927Z,-1.30
2023-01-21T06:37:28.730Z,-1.10
2023-01-21T06:39:55.376Z,-1.10
2023-01-21T06:42:22.549Z,-1.20
2023-01-21T06:44:49.563Z,-1.20
2023-01-21T06:47:16.390Z,-1.00
2023-01-21T06:49:43.352Z,-1.30
2023-01-21T06:52:10.041Z,-1.20
2023-01-21T06:54:36.810Z,-1.10
2023-01-21T06:57:03.589Z,-0.70
2023-01-21T06:59:30.263Z,-1.30
2023-01-21T07:01:59.213Z,-1.20
2023-01-21T07:04:27.290Z,-1.50
2023-01-21T07:06:55.240Z,-1.40
2023-01-21T07:09:21.919Z,-1.20
2023-01-21T07:11:48.772Z,-1.40
2023-01-21T07:14:15.764Z,-1.50
2023-01-21T07:16:42.533Z,-1.50
2023-01-21T07:19:09.212Z,-1.40
2023-01-21T07:21:35.932Z,-1.40
2023-01-21T07:24:02.814Z,-1.50
2023-01-21T07:26:29.486Z,-1.50
2023-01-21T07:28:56.197Z,-1.30
2023-01-21T07:31:23.094Z,-1.50
2023-01-21T07:33:49.839Z,-1.40
2023-01-21T07:36:17.150Z,-1.30
2023-01-21T07:38:43.827Z,-1.40
2023-01-21T07:41:10.571Z,-1.40
2023-01-21T07:43:37.227Z,-1.20
2023-01-21T07:46:04.233Z,-1.10
2023-01-21T07:48:30.968Z,-1.30
2023-01-21T07:50:59.030Z,-1.40
2023-01-21T07:53:26.261Z,-1.50
2023-01-21T07:55:53.265Z,-1.40
2023-01-21T07:58:20.032Z,-1.40
2023-01-21T08:00:46.747Z,-1.50
2023-01-21T08:03:13.543Z,-1.40
2023-01-21T08:05:42.082Z,-1.50
2023-01-21T08:08:08.734Z,-1.50
2023-01-21T08:10:35.455Z,-1.60
2023-01-21T08:13:02.259Z,-1.50
2023-01-21T08:15:29.067Z,-1.50
2023-01-21T08:17:56.998Z,-1.20
2023-01-21T08:20:24.046Z,-1.20
2023-01-21T08:22:51.136Z,-1.40
2023-01-21T08:25:18.487Z,-1.10
2023-01-21T08:27:45.492Z,-1.30
2023-01-21T08:30:12.530Z,-1.00
2023-01-21T08:32:39.599Z,-1.20
2023-01-21T08:35:07.150Z,-1.20
2023-01-21T08:37:33.897Z,-1.20
2023-01-21T08:40:00.821Z,-1.10
2023-01-21T08:42:27.584Z,-1.20
2023-01-21T08:44:54.345Z,-1.10
2023-01-21T08:47:21.083Z,-1.10
2023-01-21T08:49:47.881Z,-0.90
2023-01-21T08:52:16.976Z,-1.00
2023-01-21T08:54:43.831Z,-0.90
2023-01-21T08:57:11.349Z,-0.90
2023-01-21T08:59:38.247Z,-0.70
2023-01-21T09:02:08.264Z,-0.90
2023-01-21T09:04:35.150Z,-0.80
2023-01-21T09:07:01.870Z,-0.80
2023-01-21T09:09:28.692Z,-0.70
2023-01-21T09:11:55.437Z,-0.60
2023-01-21T09:14:22.118Z,-0.60
2023-01-21T09:16:49.597Z,-0.60
2023-01-21T09:19:16.562Z,-0.50
2023-01-21T09:21:43.261Z,-0.40
2023-01-21T09:24:10.066Z,-0.60
2023-01-21T09:26:36.890Z,-0.60
2023-01-21T09:29:03.604Z,-0.60
2023-01-21T09:31:31.026Z,-0.60
2023-01-21T09:34:01.040Z,-0.40
2023-01-21T09:36:30.185Z,-0.40
2023-01-21T09:38:57.451Z,-0.20
2023-01-21T09:41:29.686Z,-0.20
2023-01-21T09:44:10.575Z,-0.40
2023-01-21T09:46:57.641Z,-0.40
2023-01-21T09:49:59.969Z,-0.30
2023-01-21T09:52:30.351Z,-0.30
2023-01-21T09:54:58.189Z,-0.30
2023-01-21T09:58:00.207Z,-0.20
2023-01-21T10:00:33.117Z,-0.30
2023-01-21T10:03:10.124Z,-0.20
2023-01-21T10:05:55.728Z,-0.10
2023-01-21T10:08:36.842Z,0.00
2023-01-21T10:11:15.523Z,0.20
2023-01-21T10:14:06.228Z,0.20
2023-01-21T10:16:39.412Z,0.70
2023-01-21T10:19:12.903Z,0.40
2023-01-21T10:21:52.667Z,0.50
2023-01-21T10:24:30.452Z,0.40
2023-01-21T10:26:58.835Z,0.30
2023-01-21T10:29:26.963Z,0.30
2023-01-21T10:32:16.739Z,0.20
2023-01-21T10:34:54.986Z,0.30
2023-01-21T10:37:35.810Z,0.20
2023-01-21T10:40:39.851Z,0.30
2023-01-21T10:43:10.790Z,0.30
2023-01-21T10:45:51.984Z,0.10
2023-01-21T10:48:21.299Z,0.20
2023-01-21T10:50:50.784Z,0.30
2023-01-21T10:53:27.266Z,0.30
2023-01-21T10:55:59.967Z,0.20
2023-01-21T10:58:52.429Z,0.20
2023-01-21T11:01:30.225Z,0.40
2023-01-21T11:04:13.652Z,0.50
2023-01-21T11:06:40.987Z,0.40
2023-01-21T11:09:12.521Z,0.40
2023-01-21T11:11:41.517Z,0.30
2023-01-21T11:14:08.478Z,0.50
2023-01-21T11:16:48.615Z,0.60
2023-01-21T11:19:26.712Z,0.70
2023-01-21T11:22:19.906Z,0.60
2023-01-21T11:24:49.111Z,0.60
2023-01-21T11:27:40.678Z,0.70
2023-01-21T11:30:50.692Z,0.90
2023-01-21T11:33:24.581Z,0.50
2023-01-21T11:35:55.442Z,0.70
2023-01-21T11:38:37.425Z,0.80
2023-01-21T11:41:21.393Z,1.00
2023-01-21T11:43:54.625Z,0.70
2023-01-21T11:46:38.404Z,0.80
2023-01-21T11:49:10.732Z,1.00
2023-01-21T11:51:39.543Z,0.90
2023-01-21T11:54:26.472Z,1.00
2023-01-21T11:56:55.942Z,1.10
2023-01-21T11:59:41.791Z,1.10
2023-01-21T12:02:18.396Z,1.80
2023-01-21T12:04:57.407Z,1.30
2023-01-21T12:07:37.661Z,1.30
2023-01-21T12:10:13.237Z,0.90
2023-01-21T12:13:08.281Z,1.20
2023-01-21T12:16:18.563Z,1.20
2023-01-21T12:19:18.270Z,1.10
2023-01-21T12:22:06.440Z,1.00
2023-01-21T12:25:10.963Z,1.20
2023-01-21T12:27:55.891Z,1.00
2023-01-21T12:30:46.436Z,0.90
2023-01-21T12:33:16.692Z,1.00
2023-01-21T12:35:50.445Z,1.00
2023-01-21T12:38:24.965Z,1.00
2023-01-21T12:41:01.209Z,1.00
2023-01-21T12:43:41.930Z,0.90
2023-01-21T12:46:28.932Z,1.20
2023-01-21T12:49:03.414Z,0.80
2023-01-21T12:51:40.864Z,0.90
2023-01-21T12:54:31.928Z,1.20
2023-01-21T12:57:03.313Z,1.40
2023-01-21T12:59:39.704Z,1.10
2023-01-21T13:02:17.713Z,1.00
2023-01-21T13:04:58.324Z,1.00
2023-01-21T13:07:43.638Z,1.50
2023-01-21T13:10:35.981Z,1.20
2023-01-21T13:13:20.067Z,1.30
2023-01-21T13:15:50.737Z,1.30
2023-01-21T13:18:24.281Z,1.30
2023-01-21T13:21:00.434Z,1.20
2023-01-21T13:23:44.604Z,1.70
2023-01-21T13:26:50.158Z,1.00
2023-01-21T13:29:42.297Z,0.70
2023-01-21T13:32:20.888Z,1.10
2023-01-21T13:35:15.902Z,0.80
2023-01-21T13:37:56.980Z,0.70
2023-01-21T13:40:57.212Z,0.80
2023-01-21T13:43:26.666Z,0.90
2023-01-21T13:46:13.105Z,1.20
2023-01-21T13:49:18.809Z,1.10
2023-01-21T13:52:08.417Z,1.10
2023-01-21T13:54:42.993Z,1.00
2023-01-21T13:57:47.263Z,1.00
2023-01-21T14:00:32.580Z,0.80
2023-01-21T14:03:26.891Z,0.80
2023-01-21T14:06:08.262Z,1.10
2023-01-21T14:08:51.273Z,1.00
2023-01-21T14:11:20.448Z,1.00
2023-01-21T14:14:00.145Z,0.80
2023-01-21T14:16:33.630Z,0.60
2023-01-21T14:19:42.745Z,0.60
2023-01-21T14:22:15.613Z,0.50
2023-01-21T14:24:55.654Z,0.50
2023-01-21T14:27:50.096Z,0.60
2023-01-21T14:30:25.881Z,0.50
2023-01-21T14:32:56.663Z,0.70
2023-01-21T14:35:32.881Z,0.60
2023-01-21T14:38:24.009Z,0.80
2023-01-21T14:41:04.395Z,0.90
2023-01-21T14:43:31.015Z,1.20
2023-01-21T14:45:59.587Z,1.00
2023-01-21T14:48:38.342Z,0.80
2023-01-21T14:51:07.895Z,0.70
2023-01-21T14:53:48.396Z,0.80
2023-01-21T14:56:20.858Z,0.70
2023-01-21T14:58:51.981Z,0.90
2023-01-21T15:01:28.964Z,0.70
2023-01-21T15:03:56.897Z,0.80
2023-01-21T15:06:25.693Z,0.90
2023-01-21T15:08:57.679Z,0.80
2023-01-21T15:11:44.264Z,0.60
2023-01-21T15:14:22.412Z,0.50
2023-01-21T15:16:49.260Z,0.90
2023-01-21T15:19:24.014Z,0.60
2023-01-21T15:21:59.952Z,0.60
2023-01-21T15:24:40.567Z,0.80
2023-01-21T15:27:26.936Z,0.70
2023-01-21T15:29:58.431Z,6.20
2023-01-21T15:32:33.673Z,3.50
2023-01-21T15:35:30.276Z,2.80
2023-01-21T15:38:15.431Z,2.30
2023-01-21T15:40:47.438Z,2.00
2023-01-21T15:43:26.974Z,2.00
2023-01-21T15:46:26.326Z,2.10
2023-01-21T15:49:11.640Z,2.20
2023-01-21T15:52:02.189Z,2.20
2023-01-21T15:54:28.723Z,3.60
2023-01-21T15:57:24.429Z,2.40
2023-01-21T16:00:09.689Z,1.60
2023-01-21T16:03:12.643Z,1.70
2023-01-21T16:05:56.480Z,1.60
2023-01-21T16:09:06.912Z,1.90
2023-01-21T16:11:49.175Z,1.00
2023-01-21T16:14:38.231Z,1.10
2023-01-21T16:17:32.781Z,2.80
2023-01-21T16:20:00.270Z,1.80
2023-01-21T16:22:33.732Z,2.60
2023-01-21T16:25:06.506Z,2.10
2023-01-21T16:27:33.263Z,2.60
2023-01-21T16:30:12.148Z,1.70
2023-01-21T16:32:38.991Z,1.80
2023-01-21T16:35:06.218Z,2.00
2023-01-21T16:37:33.575Z,2.90
2023-01-21T16:40:09.634Z,2.60
2023-01-21T16:42:44.197Z,3.00
2023-01-21T16:45:18.391Z,3.10
2023-01-21T16:47:52.556Z,2.70
2023-01-21T16:50:22.576Z,3.50
2023-01-21T16:52:50.463Z,2.30
2023-01-21T16:55:22.447Z,2.90
2023-01-21T16:57:51.745Z,2.50
2023-01-21T17:00:27.305Z,1.80
2023-01-21T17:02:54.980Z,2.60
2023-01-21T17:05:22.864Z,3.50
2023-01-21T17:07:58.189Z,3.70
2023-01-21T17:10:36.255Z,3.20
2023-01-21T17:13:10.455Z,3.50
2023-01-21T17:16:02.769Z,2.50
2023-01-21T17:18:42.877Z,2.50
2023-01-21T17:21:16.358Z,1.80
2023-01-21T17:23:43.051Z,2.30
2023-01-21T17:26:36.829Z,1.80
2023-01-21T17:29:21.601Z,2.40
2023-01-21T17:31:59.964Z,2.30
2023-01-21T17:34:29.500Z,2.40
2023-01-21T17:36:56.927Z,3.00
2023-01-21T17:39:45.707Z,2.60
2023-01-21T17:42:18.100Z,2.50
2023-01-21T17:44:50.071Z,3.00
2023-01-21T17:47:27.623Z,3.30
2023-01-21T17:50:19.702Z,2.10
2023-01-21T17:53:03.979Z,2.20
2023-01-21T17:55:59.628Z,4.40
2023-01-21T17:59:10.984Z,4.30
2023-01-21T18:01:37.636Z,4.00
2023-01-21T18:04:04.464Z,3.20
2023-01-21T18:06:33.076Z,3.70
2023-01-21T18:09:01.004Z,4.10
2023-01-21T18:11:27.741Z,3.50
2023-01-21T18:13:54.435Z,3.90
2023-01-21T18:16:21.336Z,3.50
2023-01-21T18:18:49.440Z,3.90
2023-01-21T18:21:21.021Z,4.10
2023-01-21T18:23:48.465Z,4.60
2023-01-21T18:26:30.188Z,4.40
2023-01-21T18:28:56.940Z,4.50
2023-01-21T18:31:24.023Z,5.10
2023-01-21T18:33:50.816Z,5.90
2023-01-21T18:36:18.668Z,4.80
2023-01-21T18:38:45.363Z,5.00
2023-01-21T18:41:13.399Z,5.20
2023-01-21T18:43:40.114Z,5.30
2023-01-21T18:46:12.103Z,5.90
2023-01-21T18:48:38.968Z,5.80
2023-01-21T18:51:05.914Z,4.60
2023-01-21T18:53:32.797Z,4.00
2023-01-21T18:55:59.796Z,4.80
2023-01-21T18:58:26.480Z,4.90
2023-01-21T19:00:53.350Z,4.80
2023-01-21T19:03:20.169Z,4.00
2023-01-21T19:05:47.723Z,5.80
2023-01-21T19:08:21.675Z,3.70
2023-01-21T19:10:48.398Z,4.90
2023-01-21T19:13:15.140Z,5.00
2023-01-21T19:15:42.171Z,5.40
2023-01-21T19:18:13.640Z,5.80
2023-01-21T19:20:41.751Z,5.60
2023-01-21T19:23:16.458Z,6.50
2023-01-21T19:25:54.080Z,6.70
2023-01-21T19:28:21.577Z,5.90
2023-01-21T19:30:49.801Z,5.70
2023-01-21T19:33:16.778Z,6.30
2023-01-21T19:35:45.324Z,6.50
2023-01-21T19:38:23.151Z,7.30
2023-01-21T19:40:56.866Z,6.50
2023-01-21T19:43:23.827Z,5.60
2023-01-21T19:45:52.165Z,4.50
2023-01-21T19:48:21.536Z,3.30
2023-01-21T19:50:48.534Z,5.10
2023-01-21T19:53:20.876Z,5.50
2023-01-21T19:55:49.641Z,4.80
2023-01-21T19:58:25.933Z,4.90
2023-01-21T20:00:53.808Z,5.40
2023-01-21T20:03:23.907Z,5.40
2023-01-21T20:05:54.369Z,5.10
2023-01-21T20:08:23.566Z,5.40
2023-01-21T20:10:50.371Z,5.80
2023-01-21T20:13:17.860Z,5.90
2023-01-21T20:15:45.910Z,4.50
2023-01-21T20:18:33.143Z,3.30
2023-01-21T20:20:59.831Z,5.20
2023-01-21T20:23:26.854Z,6.00
2023-01-21T20:25:58.424Z,4.80
2023-01-21T20:28:28.053Z,3.90
2023-01-21T20:30:55.276Z,3.80
2023-01-21T20:33:23.455Z,4.80
2023-01-21T20:35:53.352Z,4.90
2023-01-21T20:38:34.105Z,4.70
2023-01-21T20:41:02.370Z,4.30
2023-01-21T20:43:29.497Z,4.20
2023-01-21T20:46:00.949Z,4.10
2023-01-21T20:48:32.856Z,3.60
2023-01-21T20:51:04.178Z,3.80
2023-01-21T20:53:30.964Z,5.00
2023-01-21T20:56:00.495Z,5.40
2023-01-21T20:58:28.441Z,5.70
2023-01-21T21:00:55.531Z,6.00
2023-01-21T21:03:22.359Z,6.20
2023-01-21T21:05:49.697Z,5.90
2023-01-21T21:08:18.945Z,6.10
2023-01-21T21:10:46.798Z,6.20
2023-01-21T21:13:16.609Z,6.20
2023-01-21T21:15:46.257Z,6.40
2023-01-21T21:18:14.011Z,6.20
2023-01-21T21:20:40.826Z,6.30
2023-01-21T21:23:09.736Z,6.20
2023-01-21T21:25:42.083Z,6.00
2023-01-21T21:28:10.549Z,6.40
2023-01-21T21:30:37.455Z,6.30
2023-01-21T21:33:04.327Z,6.30
2023-01-21T21:35:36.255Z,6.50
2023-01-21T21:38:11.145Z,6.60
2023-01-21T21:40:38.347Z,6.60
2023-01-21T21:43:23.763Z,6.50
2023-01-21T21:46:09.251Z,6.50
2023-01-21T21:48:38.896Z,6.60
2023-01-21T21:51:10.212Z,6.20
2023-01-21T21:53:37.601Z,6.30
2023-01-21T21:56:05.318Z,6.60
2023-01-21T21:58:32.182Z,6.50
2023-01-21T22:01:14.731Z,6.60
2023-01-21T22:03:41.988Z,6.60
2023-01-21T22:06:09.774Z,6.70
2023-01-21T22:08:38.822Z,6.60
2023-01-21T22:11:08.665Z,6.60
2023-01-21T22:13:37.771Z,6.60
2023-01-21T22:16:05.524Z,6.60
2023-01-21T22:18:34.426Z,6.80
2023-01-21T22:21:10.791Z,6.80
2023-01-21T22:23:37.962Z,6.80
2023-01-21T22:26:07.014Z,6.70
2023-01-21T22:28:36.861Z,6.90
2023-01-21T22:31:05.328Z,7.00
2023-01-21T22:33:33.077Z,7.00
2023-01-21T22:36:03.956Z,6.50
2023-01-21T22:38:33.166Z,6.00
2023-01-21T22:41:00.348Z,6.00
2023-01-21T22:43:27.796Z,5.90
2023-01-21T22:45:56.671Z,5.80
2023-01-21T22:48:24.342Z,5.90
2023-01-21T22:50:56.503Z,5.80
2023-01-21T22:53:24.232Z,5.90
2023-01-21T22:55:59.551Z,5.90
2023-01-21T22:58:27.783Z,5.90
2023-01-21T23:00:55.523Z,5.90
2023-01-21T23:03:24.135Z,6.00
2023-01-21T23:05:50.908Z,5.90
2023-01-21T23:08:18.488Z,5.90
2023-01-21T23:10:47.252Z,5.90
2023-01-21T23:13:15.928Z,5.80
2023-01-21T23:15:43.932Z,5.80
2023-01-21T23:18:11.014Z,5.90
2023-01-21T23:20:37.856Z,5.90
2023-01-21T23:23:04.795Z,6.00
2023-01-21T23:25:31.432Z,6.00
2023-01-21T23:27:58.052Z,6.00
2023-01-21T23:30:24.785Z,5.90
2023-01-21T23:32:52.514Z,6.00
2023-01-21T23:35:19.371Z,6.00
2023-01-21T23:37:46.376Z,6.00
2023-01-21T23:40:13.240Z,5.90
2023-01-21T23:42:40.803Z,5.90
2023-01-21T23:45:07.917Z,5.90
2023-01-21T23:47:34.549Z,5.90
2023-01-21T23:50:01.326Z,5.90
2023-01-21T23:52:27.998Z,6.00
2023-01-21T23:54:54.984Z,6.00
2023-01-21T23:57:25.043Z,6.00
2023-01-21T23:59:51.750Z,6.00
